CheckWX is a tool to help pilots better visualize weather data.  It is not intended as a substitute for an official pre-flight weather briefing.

19:34:31 UTC

KNUW METAR
Whidbey Island NAS / Ault Field Airport
Oak Harbor, Washington, USA
Current

39 mins ago

KNUW 201856Z 00000KT 10SM SCT250 12/00 A3023 RMK AO2 SLP237 T01170000 $
Observed
Nov-20 @ 18:56 UTC
Visibility
10 SM
Flight Rules
VFR
Cloud Levels
  • Scattered at 25,000' AGL
Temperature
12°C / 54°F
Dewpoint
C / 32°F
Humidity
44%
Altimeter
30.23" Hg
Pressure
1023.72 hPa
Previous

2 hours ago

KNUW 201756Z VRB03KT 10SM FEW250 09/00 A3024 RMK AO2 SLP238 T00940000 10100 20017 51007 $
Observed
Nov-20 @ 17:56 UTC
Wind
  • Variable at 3 KTS
Visibility
10 SM
Flight Rules
VFR
Cloud Levels
  • Few at 25,000' AGL
Temperature
C / 48°F
Dewpoint
C / 32°F
Humidity
54%
Altimeter
30.24" Hg
Pressure
1024.02 hPa
Previous

3 hours ago

KNUW 201656Z 12005KT 10SM SCT250 08/M01 A3023 RMK AO2 SLP237 T00781006 $
Observed
Nov-20 @ 16:56 UTC
Wind
  • 120° at 5 KTS
Visibility
10 SM
Flight Rules
VFR
Cloud Levels
  • Scattered at 25,000' AGL
Temperature
C / 46°F
Dewpoint
-1°C / 30°F
Humidity
53%
Altimeter
30.23" Hg
Pressure
1023.72 hPa